Terminal Aerodrome Forecast
Issued by NWS Charleston, WV

Home | Current Version | Previous Version | Text Only | Print | Product List | Glossary On
Versions: 1 2 3 4 5 6 7 8 9 10 11 12 13 14 15 16 17 18 19 20 21 22 23 24
000
FTUS41 KRLX 010200 AAA
TAFEKN
TAF AMD
KEKN 010257Z 0103/0124 25003KT P6SM BKN070 BKN110
     FM011100 00000KT 6SM BR BKN024
     FM011600 00000KT P6SM SCT020
     FM012000 VRB03KT P6SM BKN040=

USA.gov is the U.S. government's official web portal to all federal, state and local government web resources and services.